sensor_id;sensor_type;location;lat;lon;timestamp;pressure;altitude;pressure_sealevel;temperature;humidity
73383;BME280;61600;48.126;11.542;2023-06-19T00:02:21;95330.72;;;25.81;34.65
73383;BME280;61600;48.126;11.542;2023-06-19T00:04:46;95321.94;;;25.72;34.98
73383;BME280;61600;48.126;11.542;2023-06-19T00:07:12;95315.94;;;25.70;34.83
73383;BME280;61600;48.126;11.542;2023-06-19T00:09:38;95321.88;;;25.61;34.92
73383;BME280;61600;48.126;11.542;2023-06-19T00:12:04;95312.19;;;25.48;34.97
73383;BME280;61600;48.126;11.542;2023-06-19T00:14:30;95313.34;;;25.37;35.29
73383;BME280;61600;48.126;11.542;2023-06-19T00:16:55;95306.03;;;25.18;35.99
73383;BME280;61600;48.126;11.542;2023-06-19T00:19:22;95309.16;;;25.09;35.98
73383;BME280;61600;48.126;11.542;2023-06-19T00:21:48;95304.28;;;24.99;36.37
73383;BME280;61600;48.126;11.542;2023-06-19T00:24:14;95311.41;;;24.93;36.26
73383;BME280;61600;48.126;11.542;2023-06-19T00:26:40;95304.25;;;24.92;36.75
73383;BME280;61600;48.126;11.542;2023-06-19T00:29:05;95306.97;;;24.85;37.15
73383;BME280;61600;48.126;11.542;2023-06-19T00:31:32;95311.25;;;24.79;37.11
73383;BME280;61600;48.126;11.542;2023-06-19T00:33:58;95308.09;;;24.80;37.24
73383;BME280;61600;48.126;11.542;2023-06-19T00:36:24;95305.31;;;24.80;37.19
73383;BME280;61600;48.126;11.542;2023-06-19T00:38:51;95305.38;;;24.88;36.58
73383;BME280;61600;48.126;11.542;2023-06-19T00:41:17;95308.94;;;24.84;36.60
73383;BME280;61600;48.126;11.542;2023-06-19T00:43:43;95311.28;;;24.82;36.73
73383;BME280;61600;48.126;11.542;2023-06-19T00:46:10;95318.09;;;24.85;36.98
73383;BME280;61600;48.126;11.542;2023-06-19T00:48:36;95308.56;;;24.86;36.88
73383;BME280;61600;48.126;11.542;2023-06-19T00:51:02;95310.91;;;24.84;36.62
73383;BME280;61600;48.126;11.542;2023-06-19T00:53:29;95312.16;;;24.87;36.95
73383;BME280;61600;48.126;11.542;2023-06-19T00:55:56;95318.53;;;24.87;36.76
73383;BME280;61600;48.126;11.542;2023-06-19T00:58:23;95311.38;;;24.90;36.67
73383;BME280;61600;48.126;11.542;2023-06-19T01:00:49;95320.94;;;24.92;36.78
73383;BME280;61600;48.126;11.542;2023-06-19T01:03:15;95317.38;;;24.95;36.75
73383;BME280;61600;48.126;11.542;2023-06-19T01:05:42;95322.19;;;25.02;36.19
73383;BME280;61600;48.126;11.542;2023-06-19T01:10:55;95318.28;;;25.06;36.44
73383;BME280;61600;48.126;11.542;2023-06-19T01:16:07;95317.19;;;25.18;36.46
73383;BME280;61600;48.126;11.542;2023-06-19T01:18:33;95327.50;;;25.17;35.86
73383;BME280;61600;48.126;11.542;2023-06-19T01:21:20;95324.75;;;25.21;36.04
73383;BME280;61600;48.126;11.542;2023-06-19T01:23:46;95324.41;;;25.26;36.01
73383;BME280;61600;48.126;11.542;2023-06-19T01:26:13;95321.22;;;25.27;36.24
73383;BME280;61600;48.126;11.542;2023-06-19T01:28:40;95325.94;;;25.23;36.27
73383;BME280;61600;48.126;11.542;2023-06-19T01:31:14;95324.75;;;25.21;36.52
73383;BME280;61600;48.126;11.542;2023-06-19T01:33:42;95329.91;;;25.19;36.15
73383;BME280;61600;48.126;11.542;2023-06-19T01:36:09;95322.34;;;25.19;36.11
73383;BME280;61600;48.126;11.542;2023-06-19T01:38:36;95326.31;;;25.15;36.42
73383;BME280;61600;48.126;11.542;2023-06-19T01:41:04;95329.09;;;25.15;36.25
73383;BME280;61600;48.126;11.542;2023-06-19T01:43:32;95332.28;;;25.20;36.39
73383;BME280;61600;48.126;11.542;2023-06-19T01:45:58;95323.97;;;25.24;36.11
73383;BME280;61600;48.126;11.542;2023-06-19T01:48:26;95332.75;;;25.26;36.68
73383;BME280;61600;48.126;11.542;2023-06-19T01:50:52;95326.41;;;25.29;36.18
73383;BME280;61600;48.126;11.542;2023-06-19T01:53:18;95322.00;;;25.28;36.18
73383;BME280;61600;48.126;11.542;2023-06-19T01:55:43;95323.19;;;25.27;36.48
73383;BME280;61600;48.126;11.542;2023-06-19T01:58:09;95328.34;;;25.21;36.69
73383;BME280;61600;48.126;11.542;2023-06-19T02:00:35;95317.56;;;25.20;36.38
73383;BME280;61600;48.126;11.542;2023-06-19T02:03:01;95317.59;;;25.23;36.20
73383;BME280;61600;48.126;11.542;2023-06-19T02:05:27;95322.78;;;25.25;36.80
73383;BME280;61600;48.126;11.542;2023-06-19T02:07:53;95316.41;;;25.21;37.00
73383;BME280;61600;48.126;11.542;2023-06-19T02:10:19;95324.66;;;25.10;37.15
73383;BME280;61600;48.126;11.542;2023-06-19T02:12:45;95317.47;;;25.06;37.31
73383;BME280;61600;48.126;11.542;2023-06-19T02:15:11;95321.50;;;25.12;37.31
73383;BME280;61600;48.126;11.542;2023-06-19T02:17:36;95325.06;;;25.12;37.08
73383;BME280;61600;48.126;11.542;2023-06-19T02:20:02;95320.28;;;25.09;37.15
73383;BME280;61600;48.126;11.542;2023-06-19T02:22:32;95325.03;;;25.09;37.27
73383;BME280;61600;48.126;11.542;2023-06-19T02:24:57;95322.25;;;25.09;37.25
73383;BME280;61600;48.126;11.542;2023-06-19T02:27:23;95327.75;;;25.02;37.99
73383;BME280;61600;48.126;11.542;2023-06-19T02:29:49;95328.56;;;25.02;37.98
73383;BME280;61600;48.126;11.542;2023-06-19T02:32:15;95321.81;;;25.03;37.70
73383;BME280;61600;48.126;11.542;2023-06-19T02:34:41;95316.19;;;24.93;38.17
73383;BME280;61600;48.126;11.542;2023-06-19T02:37:07;95320.88;;;24.85;38.71
73383;BME280;61600;48.126;11.542;2023-06-19T02:39:33;95327.19;;;24.82;39.05
73383;BME280;61600;48.126;11.542;2023-06-19T02:41:59;95321.19;;;24.76;39.08
73383;BME280;61600;48.126;11.542;2023-06-19T02:44:25;95322.84;;;24.84;39.95
73383;BME280;61600;48.126;11.542;2023-06-19T02:46:51;95328.41;;;24.84;41.10
73383;BME280;61600;48.126;11.542;2023-06-19T02:49:16;95333.19;;;24.84;42.83
73383;BME280;61600;48.126;11.542;2023-06-19T02:51:42;95328.81;;;24.83;43.89
73383;BME280;61600;48.126;11.542;2023-06-19T02:54:08;95323.53;;;24.74;44.49
73383;BME280;61600;48.126;11.542;2023-06-19T02:56:34;95327.91;;;24.75;43.85
73383;BME280;61600;48.126;11.542;2023-06-19T02:58:59;95327.03;;;24.64;45.01
73383;BME280;61600;48.126;11.542;2023-06-19T03:01:25;95327.44;;;24.66;44.54
73383;BME280;61600;48.126;11.542;2023-06-19T03:03:51;95325.84;;;24.65;44.90
73383;BME280;61600;48.126;11.542;2023-06-19T03:06:18;95321.78;;;24.56;45.78
73383;BME280;61600;48.126;11.542;2023-06-19T03:08:43;95326.97;;;24.61;45.82
73383;BME280;61600;48.126;11.542;2023-06-19T03:11:09;95323.81;;;24.59;46.28
73383;BME280;61600;48.126;11.542;2023-06-19T03:13:53;95329.63;;;24.47;45.45
73383;BME280;61600;48.126;11.542;2023-06-19T03:16:19;95333.88;;;24.33;44.86
73383;BME280;61600;48.126;11.542;2023-06-19T03:18:46;95342.53;;;24.28;45.07
73383;BME280;61600;48.126;11.542;2023-06-19T03:21:12;95339.75;;;24.28;44.67
73383;BME280;61600;48.126;11.542;2023-06-19T03:23:37;95347.00;;;24.36;45.05
73383;BME280;61600;48.126;11.542;2023-06-19T03:26:03;95349.75;;;24.33;44.76
73383;BME280;61600;48.126;11.542;2023-06-19T03:28:29;95345.81;;;24.38;44.89
73383;BME280;61600;48.126;11.542;2023-06-19T03:30:55;95365.56;;;24.29;45.69
73383;BME280;61600;48.126;11.542;2023-06-19T03:33:21;95354.50;;;24.32;45.36
73383;BME280;61600;48.126;11.542;2023-06-19T03:35:46;95357.13;;;24.18;46.27
73383;BME280;61600;48.126;11.542;2023-06-19T03:38:12;95357.00;;;24.11;46.45
73383;BME280;61600;48.126;11.542;2023-06-19T03:40:39;95366.28;;;24.22;44.84
73383;BME280;61600;48.126;11.542;2023-06-19T03:43:05;95369.53;;;24.28;44.82
73383;BME280;61600;48.126;11.542;2023-06-19T03:45:30;95371.56;;;24.31;44.44
73383;BME280;61600;48.126;11.542;2023-06-19T03:47:56;95379.53;;;24.32;45.09
73383;BME280;61600;48.126;11.542;2023-06-19T03:50:22;95373.59;;;24.34;44.22
73383;BME280;61600;48.126;11.542;2023-06-19T03:52:49;95377.94;;;24.35;44.49
73383;BME280;61600;48.126;11.542;2023-06-19T03:55:15;95381.00;;;24.23;45.11
73383;BME280;61600;48.126;11.542;2023-06-19T03:57:40;95384.66;;;24.30;43.56
73383;BME280;61600;48.126;11.542;2023-06-19T04:00:06;95385.91;;;24.07;43.36
73383;BME280;61600;48.126;11.542;2023-06-19T04:02:33;95399.50;;;24.12;42.60
73383;BME280;61600;48.126;11.542;2023-06-19T04:04:59;95386.16;;;24.24;41.81
73383;BME280;61600;48.126;11.542;2023-06-19T04:07:25;95395.72;;;24.23;42.35
73383;BME280;61600;48.126;11.542;2023-06-19T04:09:51;95388.16;;;24.24;41.64
73383;BME280;61600;48.126;11.542;2023-06-19T04:12:17;95392.13;;;24.23;41.38
73383;BME280;61600;48.126;11.542;2023-06-19T04:14:42;95389.38;;;24.26;41.09
73383;BME280;61600;48.126;11.542;2023-06-19T04:17:08;95399.34;;;24.27;41.24
73383;BME280;61600;48.126;11.542;2023-06-19T04:19:34;95400.16;;;24.31;40.95
73383;BME280;61600;48.126;11.542;2023-06-19T04:22:00;95410.06;;;24.29;40.90
73383;BME280;61600;48.126;11.542;2023-06-19T04:24:26;95410.31;;;24.17;41.04
73383;BME280;61600;48.126;11.542;2023-06-19T04:26:51;95409.13;;;24.18;41.27
73383;BME280;61600;48.126;11.542;2023-06-19T04:29:17;95412.47;;;24.30;41.17
73383;BME280;61600;48.126;11.542;2023-06-19T04:31:46;95410.09;;;24.32;40.95
73383;BME280;61600;48.126;11.542;2023-06-19T04:34:15;95421.03;;;24.18;41.08
73383;BME280;61600;48.126;11.542;2023-06-19T04:36:41;95416.69;;;23.65;42.69
73383;BME280;61600;48.126;11.542;2023-06-19T04:39:07;95414.88;;;23.76;42.54
73383;BME280;61600;48.126;11.542;2023-06-19T04:41:33;95415.94;;;23.94;42.37
73383;BME280;61600;48.126;11.542;2023-06-19T04:43:58;95420.31;;;23.95;42.52
73383;BME280;61600;48.126;11.542;2023-06-19T04:46:25;95421.81;;;24.15;42.77
73383;BME280;61600;48.126;11.542;2023-06-19T04:48:51;95426.94;;;24.13;42.55
73383;BME280;61600;48.126;11.542;2023-06-19T04:51:17;95435.28;;;24.13;42.55
73383;BME280;61600;48.126;11.542;2023-06-19T04:53:47;95454.97;;;24.05;42.92
73383;BME280;61600;48.126;11.542;2023-06-19T04:56:14;95454.41;;;24.18;42.89
73383;BME280;61600;48.126;11.542;2023-06-19T04:58:40;95453.78;;;24.32;42.91
73383;BME280;61600;48.126;11.542;2023-06-19T05:01:14;95456.97;;;24.30;42.36
73383;BME280;61600;48.126;11.542;2023-06-19T05:03:42;95459.38;;;24.06;42.89
73383;BME280;61600;48.126;11.542;2023-06-19T05:06:08;95458.03;;;24.22;43.26
73383;BME280;61600;48.126;11.542;2023-06-19T05:08:34;95464.84;;;24.28;42.87
73383;BME280;61600;48.126;11.542;2023-06-19T05:11:00;95473.59;;;24.27;43.39
73383;BME280;61600;48.126;11.542;2023-06-19T05:13:25;95473.72;;;24.38;43.57
73383;BME280;61600;48.126;11.542;2023-06-19T05:15:51;95470.31;;;24.21;43.66
73383;BME280;61600;48.126;11.542;2023-06-19T05:18:17;95472.94;;;24.37;43.49
73383;BME280;61600;48.126;11.542;2023-06-19T05:20:44;95475.44;;;24.49;43.38
73383;BME280;61600;48.126;11.542;2023-06-19T05:23:10;95472.63;;;24.46;43.58
73383;BME280;61600;48.126;11.542;2023-06-19T05:25:36;95473.00;;;24.14;45.05
73383;BME280;61600;48.126;11.542;2023-06-19T05:28:01;95480.03;;;23.82;45.92
73383;BME280;61600;48.126;11.542;2023-06-19T05:30:27;95478.66;;;23.69;45.91
73383;BME280;61600;48.126;11.542;2023-06-19T05:32:53;95477.16;;;24.01;45.14
73383;BME280;61600;48.126;11.542;2023-06-19T05:35:19;95481.06;;;24.23;44.85
73383;BME280;61600;48.126;11.542;2023-06-19T05:37:46;95485.75;;;24.15;45.22
73383;BME280;61600;48.126;11.542;2023-06-19T05:40:12;95486.84;;;24.37;44.12
73383;BME280;61600;48.126;11.542;2023-06-19T05:42:39;95491.91;;;24.61;44.10
73383;BME280;61600;48.126;11.542;2023-06-19T05:45:06;95497.19;;;24.70;43.73
73383;BME280;61600;48.126;11.542;2023-06-19T05:47:32;95494.41;;;24.70;43.53
73383;BME280;61600;48.126;11.542;2023-06-19T05:49:58;95505.25;;;24.82;44.73
73383;BME280;61600;48.126;11.542;2023-06-19T05:52:24;95504.53;;;24.85;44.27
73383;BME280;61600;48.126;11.542;2023-06-19T05:54:50;95504.53;;;24.85;44.36
73383;BME280;61600;48.126;11.542;2023-06-19T05:57:16;95502.06;;;24.80;45.12
73383;BME280;61600;48.126;11.542;2023-06-19T05:59:48;95510.50;;;24.83;44.97
73383;BME280;61600;48.126;11.542;2023-06-19T06:02:14;95515.13;;;24.76;45.71
73383;BME280;61600;48.126;11.542;2023-06-19T06:04:41;95514.78;;;24.81;45.03
73383;BME280;61600;48.126;11.542;2023-06-19T06:07:08;95518.78;;;24.80;45.62
73383;BME280;61600;48.126;11.542;2023-06-19T06:09:34;95526.47;;;24.90;44.77
73383;BME280;61600;48.126;11.542;2023-06-19T06:12:00;95529.66;;;24.92;44.68
73383;BME280;61600;48.126;11.542;2023-06-19T06:14:26;95522.25;;;25.03;45.03
73383;BME280;61600;48.126;11.542;2023-06-19T06:16:53;95527.34;;;24.98;44.74
73383;BME280;61600;48.126;11.542;2023-06-19T06:19:19;95530.97;;;25.02;44.39
73383;BME280;61600;48.126;11.542;2023-06-19T06:21:45;95524.69;;;25.08;44.34
73383;BME280;61600;48.126;11.542;2023-06-19T06:24:11;95524.47;;;25.27;43.51
73383;BME280;61600;48.126;11.542;2023-06-19T06:26:37;95536.94;;;25.41;42.80
73383;BME280;61600;48.126;11.542;2023-06-19T06:29:03;95539.22;;;25.65;42.37
73383;BME280;61600;48.126;11.542;2023-06-19T06:31:29;95535.78;;;25.82;42.16
73383;BME280;61600;48.126;11.542;2023-06-19T06:33:55;95542.16;;;25.82;41.86
73383;BME280;61600;48.126;11.542;2023-06-19T06:36:20;95538.19;;;25.87;41.83
73383;BME280;61600;48.126;11.542;2023-06-19T06:38:46;95534.34;;;26.02;40.49
73383;BME280;61600;48.126;11.542;2023-06-19T06:41:12;95541.97;;;26.12;40.37
73383;BME280;61600;48.126;11.542;2023-06-19T06:43:40;95557.19;;;26.18;40.16
73383;BME280;61600;48.126;11.542;2023-06-19T06:46:08;95552.09;;;26.31;39.61
73383;BME280;61600;48.126;11.542;2023-06-19T06:48:34;95556.16;;;26.41;39.27
73383;BME280;61600;48.126;11.542;2023-06-19T06:51:00;95555.72;;;26.31;39.72
73383;BME280;61600;48.126;11.542;2023-06-19T06:53:27;95566.28;;;26.66;39.42
73383;BME280;61600;48.126;11.542;2023-06-19T06:55:54;95563.19;;;26.86;38.32
73383;BME280;61600;48.126;11.542;2023-06-19T06:58:20;95562.88;;;27.01;38.24
73383;BME280;61600;48.126;11.542;2023-06-19T07:00:46;95562.88;;;26.98;38.00
73383;BME280;61600;48.126;11.542;2023-06-19T07:03:13;95571.25;;;26.98;38.59
73383;BME280;61600;48.126;11.542;2023-06-19T07:05:39;95573.91;;;26.76;38.86
73383;BME280;61600;48.126;11.542;2023-06-19T07:08:04;95583.09;;;26.80;38.34
73383;BME280;61600;48.126;11.542;2023-06-19T07:10:31;95572.53;;;26.46;39.12
73383;BME280;61600;48.126;11.542;2023-06-19T07:12:56;95582.06;;;26.41;39.08
73383;BME280;61600;48.126;11.542;2023-06-19T07:15:22;95576.94;;;26.54;38.83
73383;BME280;61600;48.126;11.542;2023-06-19T07:17:48;95577.34;;;26.49;39.24
73383;BME280;61600;48.126;11.542;2023-06-19T07:20:14;95585.44;;;26.75;38.86
73383;BME280;61600;48.126;11.542;2023-06-19T07:22:41;95566.81;;;26.90;38.10
73383;BME280;61600;48.126;11.542;2023-06-19T07:25:09;95583.63;;;27.04;38.60
73383;BME280;61600;48.126;11.542;2023-06-19T07:27:35;95574.88;;;27.05;38.49
73383;BME280;61600;48.126;11.542;2023-06-19T07:30:01;95574.06;;;27.05;38.49
73383;BME280;61600;48.126;11.542;2023-06-19T07:32:27;95576.41;;;26.99;38.13
73383;BME280;61600;48.126;11.542;2023-06-19T07:34:53;95578.94;;;27.25;37.62
73383;BME280;61600;48.126;11.542;2023-06-19T07:37:19;95586.59;;;27.46;37.21
73383;BME280;61600;48.126;11.542;2023-06-19T07:39:47;95579.88;;;27.79;36.76
73383;BME280;61600;48.126;11.542;2023-06-19T07:42:14;95588.16;;;27.44;37.71
73383;BME280;61600;48.126;11.542;2023-06-19T07:44:40;95582.59;;;27.44;36.87
73383;BME280;61600;48.126;11.542;2023-06-19T07:47:08;95578.59;;;27.45;37.06
73383;BME280;61600;48.126;11.542;2023-06-19T07:49:35;95587.00;;;27.52;37.38
73383;BME280;61600;48.126;11.542;2023-06-19T07:52:02;95583.75;;;27.43;37.53
73383;BME280;61600;48.126;11.542;2023-06-19T07:54:28;95581.84;;;27.57;37.71
73383;BME280;61600;48.126;11.542;2023-06-19T07:56:53;95595.81;;;27.57;37.39
73383;BME280;61600;48.126;11.542;2023-06-19T07:59:20;95596.19;;;27.52;37.04
73383;BME280;61600;48.126;11.542;2023-06-19T08:01:46;95592.91;;;27.25;38.29
73383;BME280;61600;48.126;11.542;2023-06-19T08:04:11;95595.59;;;27.01;38.42
73383;BME280;61600;48.126;11.542;2023-06-19T08:06:37;95600.22;;;26.79;38.19
73383;BME280;61600;48.126;11.542;2023-06-19T08:09:03;95587.59;;;26.99;38.52
73383;BME280;61600;48.126;11.542;2023-06-19T08:11:29;95603.22;;;27.11;37.88
73383;BME280;61600;48.126;11.542;2023-06-19T08:13:55;95599.63;;;27.14;38.06
73383;BME280;61600;48.126;11.542;2023-06-19T08:16:21;95604.81;;;27.08;38.18
73383;BME280;61600;48.126;11.542;2023-06-19T08:18:47;95595.56;;;26.97;38.40
73383;BME280;61600;48.126;11.542;2023-06-19T08:21:13;95609.94;;;26.99;38.21
73383;BME280;61600;48.126;11.542;2023-06-19T08:23:39;95612.31;;;26.94;38.71
73383;BME280;61600;48.126;11.542;2023-06-19T08:26:06;95595.75;;;27.43;37.84
73383;BME280;61600;48.126;11.542;2023-06-19T08:28:33;95601.38;;;27.47;37.84
73383;BME280;61600;48.126;11.542;2023-06-19T08:31:00;95597.44;;;27.58;37.91
73383;BME280;61600;48.126;11.542;2023-06-19T08:33:26;95584.13;;;27.38;37.89
73383;BME280;61600;48.126;11.542;2023-06-19T08:35:51;95584.88;;;27.20;38.48
73383;BME280;61600;48.126;11.542;2023-06-19T08:38:18;95592.63;;;27.66;37.97
73383;BME280;61600;48.126;11.542;2023-06-19T08:40:44;95593.47;;;27.88;37.51
73383;BME280;61600;48.126;11.542;2023-06-19T08:43:11;95586.69;;;27.92;37.52
73383;BME280;61600;48.126;11.542;2023-06-19T08:45:37;95577.53;;;28.13;37.18
73383;BME280;61600;48.126;11.542;2023-06-19T08:48:04;95575.50;;;28.06;37.02
73383;BME280;61600;48.126;11.542;2023-06-19T08:50:31;95587.88;;;27.98;37.43
73383;BME280;61600;48.126;11.542;2023-06-19T08:52:57;95583.91;;;28.35;35.83
73383;BME280;61600;48.126;11.542;2023-06-19T08:55:23;95583.09;;;28.59;35.97
73383;BME280;61600;48.126;11.542;2023-06-19T08:57:50;95575.88;;;28.51;36.68
73383;BME280;61600;48.126;11.542;2023-06-19T09:00:28;95569.47;;;28.54;36.39
73383;BME280;61600;48.126;11.542;2023-06-19T09:03:03;95570.50;;;29.34;34.70
73383;BME280;61600;48.126;11.542;2023-06-19T09:05:29;95569.81;;;29.78;34.42
73383;BME280;61600;48.126;11.542;2023-06-19T09:07:57;95556.50;;;29.96;33.08
73383;BME280;61600;48.126;11.542;2023-06-19T09:10:24;95561.03;;;30.28;32.34
73383;BME280;61600;48.126;11.542;2023-06-19T09:13:00;95562.41;;;30.09;31.97
73383;BME280;61600;48.126;11.542;2023-06-19T09:15:28;95566.50;;;30.01;32.10
73383;BME280;61600;48.126;11.542;2023-06-19T09:18:08;95564.88;;;30.03;32.57
73383;BME280;61600;48.126;11.542;2023-06-19T09:20:38;95566.63;;;29.76;33.10
73383;BME280;61600;48.126;11.542;2023-06-19T09:23:11;95567.25;;;30.01;33.00
73383;BME280;61600;48.126;11.542;2023-06-19T09:25:47;95568.28;;;30.25;32.51
73383;BME280;61600;48.126;11.542;2023-06-19T09:28:24;95569.00;;;30.36;32.64
73383;BME280;61600;48.126;11.542;2023-06-19T09:30:57;95569.66;;;30.06;32.85
73383;BME280;61600;48.126;11.542;2023-06-19T09:33:25;95558.72;;;30.15;32.81
73383;BME280;61600;48.126;11.542;2023-06-19T09:35:53;95565.53;;;30.18;33.36
73383;BME280;61600;48.126;11.542;2023-06-19T09:38:21;95565.22;;;30.05;33.41
73383;BME280;61600;48.126;11.542;2023-06-19T09:40:51;95570.66;;;29.71;33.85
73383;BME280;61600;48.126;11.542;2023-06-19T09:43:38;95557.06;;;29.66;34.53
73383;BME280;61600;48.126;11.542;2023-06-19T09:46:06;95566.75;;;29.58;34.88
73383;BME280;61600;48.126;11.542;2023-06-19T09:48:33;95556.97;;;29.84;34.35
73383;BME280;61600;48.126;11.542;2023-06-19T09:53:36;95564.25;;;29.71;35.22
73383;BME280;61600;48.126;11.542;2023-06-19T09:56:03;95559.63;;;29.43;35.59
73383;BME280;61600;48.126;11.542;2023-06-19T09:58:29;95556.59;;;28.99;36.13
73383;BME280;61600;48.126;11.542;2023-06-19T10:00:56;95561.63;;;29.43;35.98
73383;BME280;61600;48.126;11.542;2023-06-19T10:03:31;95559.38;;;29.09;36.69
73383;BME280;61600;48.126;11.542;2023-06-19T10:05:59;95564.47;;;29.32;36.17
73383;BME280;61600;48.126;11.542;2023-06-19T10:08:27;95557.47;;;28.85;36.70
73383;BME280;61600;48.126;11.542;2023-06-19T10:10:54;95553.69;;;29.23;35.86
73383;BME280;61600;48.126;11.542;2023-06-19T10:13:20;95553.00;;;29.78;35.10
73383;BME280;61600;48.126;11.542;2023-06-19T10:15:46;95556.34;;;29.59;35.54
73383;BME280;61600;48.126;11.542;2023-06-19T10:18:17;95546.88;;;29.32;35.93
73383;BME280;61600;48.126;11.542;2023-06-19T10:20:45;95554.28;;;29.63;35.37
73383;BME280;61600;48.126;11.542;2023-06-19T10:23:17;95542.47;;;29.96;34.74
73383;BME280;61600;48.126;11.542;2023-06-19T10:25:57;95554.91;;;30.47;34.17
73383;BME280;61600;48.126;11.542;2023-06-19T10:28:25;95542.00;;;30.01;34.55
73383;BME280;61600;48.126;11.542;2023-06-19T10:30:59;95543.44;;;30.68;33.53
73383;BME280;61600;48.126;11.542;2023-06-19T10:33:30;95548.69;;;31.03;33.08
73383;BME280;61600;48.126;11.542;2023-06-19T10:35:58;95542.81;;;31.21;32.36
73383;BME280;61600;48.126;11.542;2023-06-19T10:38:28;95542.63;;;31.35;32.23
73383;BME280;61600;48.126;11.542;2023-06-19T10:40:54;95538.91;;;31.45;31.93
73383;BME280;61600;48.126;11.542;2023-06-19T10:43:20;95547.16;;;31.86;31.53
73383;BME280;61600;48.126;11.542;2023-06-19T10:45:47;95538.63;;;31.93;31.32
73383;BME280;61600;48.126;11.542;2023-06-19T10:48:17;95537.81;;;31.93;31.30
73383;BME280;61600;48.126;11.542;2023-06-19T10:50:44;95536.28;;;32.38;30.59
73383;BME280;61600;48.126;11.542;2023-06-19T10:53:09;95531.38;;;32.42;30.82
73383;BME280;61600;48.126;11.542;2023-06-19T10:55:35;95532.63;;;32.64;29.69
73383;BME280;61600;48.126;11.542;2023-06-19T10:58:01;95534.88;;;32.27;30.23
73383;BME280;61600;48.126;11.542;2023-06-19T11:00:29;95530.66;;;31.88;30.03
73383;BME280;61600;48.126;11.542;2023-06-19T11:02:56;95522.84;;;32.26;29.94
73383;BME280;61600;48.126;11.542;2023-06-19T11:05:24;95523.13;;;32.08;29.95
73383;BME280;61600;48.126;11.542;2023-06-19T11:07:52;95520.34;;;32.05;30.47
73383;BME280;61600;48.126;11.542;2023-06-19T11:10:25;95521.81;;;32.13;30.16
73383;BME280;61600;48.126;11.542;2023-06-19T11:12:58;95513.00;;;32.34;29.41
73383;BME280;61600;48.126;11.542;2023-06-19T11:15:31;95507.06;;;32.52;28.60
73383;BME280;61600;48.126;11.542;2023-06-19T11:17:58;95506.03;;;32.65;28.75
73383;BME280;61600;48.126;11.542;2023-06-19T11:20:24;95500.97;;;32.77;28.80
73383;BME280;61600;48.126;11.542;2023-06-19T11:23:00;95501.69;;;32.61;28.94
73383;BME280;61600;48.126;11.542;2023-06-19T11:25:37;95498.78;;;32.22;28.90
73383;BME280;61600;48.126;11.542;2023-06-19T11:28:16;95506.53;;;32.60;28.67
73383;BME280;61600;48.126;11.542;2023-06-19T11:30:48;95491.69;;;32.99;27.78
73383;BME280;61600;48.126;11.542;2023-06-19T11:33:19;95494.03;;;33.01;27.96
73383;BME280;61600;48.126;11.542;2023-06-19T11:35:49;95502.28;;;32.92;28.04
73383;BME280;61600;48.126;11.542;2023-06-19T11:38:17;95487.34;;;33.14;27.11
73383;BME280;61600;48.126;11.542;2023-06-19T11:40:43;95493.50;;;32.47;28.41
73383;BME280;61600;48.126;11.542;2023-06-19T11:43:11;95486.81;;;32.80;27.67
73383;BME280;61600;48.126;11.542;2023-06-19T11:45:49;95480.66;;;33.05;27.80
73383;BME280;61600;48.126;11.542;2023-06-19T11:48:25;95486.47;;;32.98;27.65
73383;BME280;61600;48.126;11.542;2023-06-19T11:50:52;95482.34;;;33.22;27.51
73383;BME280;61600;48.126;11.542;2023-06-19T11:53:22;95475.56;;;33.00;27.48
73383;BME280;61600;48.126;11.542;2023-06-19T11:55:50;95471.91;;;33.39;27.06
73383;BME280;61600;48.126;11.542;2023-06-19T11:58:16;95477.38;;;33.82;26.77
73383;BME280;61600;48.126;11.542;2023-06-19T12:00:42;95474.97;;;34.45;25.95
73383;BME280;61600;48.126;11.542;2023-06-19T12:03:09;95473.91;;;34.55;25.70
73383;BME280;61600;48.126;11.542;2023-06-19T12:05:36;95478.44;;;34.20;25.54
73383;BME280;61600;48.126;11.542;2023-06-19T12:08:02;95480.53;;;33.68;25.93
73383;BME280;61600;48.126;11.542;2023-06-19T12:10:30;95475.09;;;33.41;26.29
73383;BME280;61600;48.126;11.542;2023-06-19T12:12:56;95468.94;;;33.46;26.17
73383;BME280;61600;48.126;11.542;2023-06-19T12:15:24;95473.72;;;33.09;27.32
73383;BME280;61600;48.126;11.542;2023-06-19T12:17:51;95473.13;;;33.38;26.58
73383;BME280;61600;48.126;11.542;2023-06-19T12:20:17;95469.94;;;33.36;26.43
73383;BME280;61600;48.126;11.542;2023-06-19T12:22:43;95470.00;;;33.52;26.57
73383;BME280;61600;48.126;11.542;2023-06-19T12:25:09;95462.41;;;33.85;25.57
73383;BME280;61600;48.126;11.542;2023-06-19T12:27:37;95470.56;;;33.27;26.22
73383;BME280;61600;48.126;11.542;2023-06-19T12:30:04;95464.69;;;34.06;25.88
73383;BME280;61600;48.126;11.542;2023-06-19T12:32:29;95445.44;;;34.33;25.51
73383;BME280;61600;48.126;11.542;2023-06-19T12:34:55;95448.25;;;34.78;24.33
73383;BME280;61600;48.126;11.542;2023-06-19T12:37:21;95445.09;;;34.60;24.83
73383;BME280;61600;48.126;11.542;2023-06-19T12:39:49;95449.97;;;34.88;24.54
73383;BME280;61600;48.126;11.542;2023-06-19T12:42:15;95439.09;;;35.16;24.20
73383;BME280;61600;48.126;11.542;2023-06-19T12:44:42;95440.13;;;35.47;23.69
73383;BME280;61600;48.126;11.542;2023-06-19T12:47:10;95439.47;;;35.43;23.91
73383;BME280;61600;48.126;11.542;2023-06-19T12:49:36;95438.03;;;35.64;23.40
73383;BME280;61600;48.126;11.542;2023-06-19T12:52:02;95433.59;;;35.75;23.11
73383;BME280;61600;48.126;11.542;2023-06-19T12:54:28;95433.47;;;36.17;23.37
73383;BME280;61600;48.126;11.542;2023-06-19T12:56:54;95431.44;;;36.39;23.32
73383;BME280;61600;48.126;11.542;2023-06-19T12:59:21;95436.97;;;35.95;23.83